createdAt,value
2019-01-24T00:01:49.374Z,-1.99
2019-01-24T00:04:20.617Z,-1.93
2019-01-24T00:06:51.681Z,-2.01
2019-01-24T00:09:22.880Z,-2.07
2019-01-24T00:11:53.945Z,-1.93
2019-01-24T00:14:25.174Z,-1.90
2019-01-24T00:16:56.313Z,-2.01
2019-01-24T00:19:27.404Z,-2.03
2019-01-24T00:21:58.484Z,-1.90
2019-01-24T00:24:29.584Z,-2.14
2019-01-24T00:27:01.022Z,-2.22
2019-01-24T00:29:32.028Z,-2.27
2019-01-24T00:32:03.325Z,-2.13
2019-01-24T00:34:34.335Z,-2.14
2019-01-24T00:37:05.546Z,-2.28
2019-01-24T00:39:39.738Z,-2.13
2019-01-24T00:42:10.878Z,-2.15
2019-01-24T00:44:43.765Z,-2.22
2019-01-24T00:47:14.833Z,-2.45
2019-01-24T00:49:45.903Z,-2.61
2019-01-24T00:52:16.980Z,-2.47
2019-01-24T00:54:48.124Z,-2.40
2019-01-24T00:57:19.176Z,-2.37
2019-01-24T00:59:50.174Z,-2.07
2019-01-24T01:02:21.245Z,-2.11
2019-01-24T01:04:52.313Z,-2.24
2019-01-24T01:07:23.649Z,-2.27
2019-01-24T01:09:54.653Z,-2.26
2019-01-24T01:12:25.782Z,-2.21
2019-01-24T01:14:56.853Z,-2.22
2019-01-24T01:17:27.985Z,-2.27
2019-01-24T01:19:59.140Z,-2.55
2019-01-24T01:22:30.323Z,-2.51
2019-01-24T01:25:01.600Z,-2.45
2019-01-24T01:27:32.754Z,-2.50
2019-01-24T01:30:04.599Z,-2.72
2019-01-24T01:32:35.723Z,-2.58
2019-01-24T01:35:07.043Z,-2.53
2019-01-24T01:37:38.226Z,-2.56
2019-01-24T01:40:10.844Z,-2.49
2019-01-24T01:42:42.040Z,-2.46
2019-01-24T01:45:18.072Z,-2.47
2019-01-24T01:47:49.529Z,-2.49
2019-01-24T01:50:22.789Z,-2.39
2019-01-24T01:52:53.976Z,-2.38
2019-01-24T01:55:25.054Z,-2.32
2019-01-24T01:57:56.189Z,-2.30
2019-01-24T02:00:27.665Z,-2.20
2019-01-24T02:02:58.720Z,-2.21
2019-01-24T02:05:29.873Z,-2.15
2019-01-24T02:08:01.043Z,-2.15
2019-01-24T02:10:32.117Z,-2.14
2019-01-24T02:13:03.292Z,-2.16
2019-01-24T02:15:34.512Z,-2.16
2019-01-24T02:18:05.866Z,-2.20
2019-01-24T02:20:37.101Z,-2.05
2019-01-24T02:23:08.325Z,-2.07
2019-01-24T02:25:39.481Z,-2.09
2019-01-24T02:28:10.654Z,-1.97
2019-01-24T02:30:41.854Z,-1.90
2019-01-24T02:33:13.009Z,-1.81
2019-01-24T02:35:46.352Z,-2.20
2019-01-24T02:38:17.517Z,-2.11
2019-01-24T02:40:48.853Z,-2.20
2019-01-24T02:43:19.871Z,-2.24
2019-01-24T02:45:52.038Z,-2.14
2019-01-24T02:48:23.160Z,-2.22
2019-01-24T02:50:54.235Z,-2.24
2019-01-24T02:53:25.378Z,-2.29
2019-01-24T02:55:56.540Z,-2.42
2019-01-24T02:58:27.573Z,-2.47
2019-01-24T03:00:58.698Z,-2.45
2019-01-24T03:03:29.844Z,-2.35
2019-01-24T03:06:01.896Z,-2.44
2019-01-24T03:08:33.022Z,-2.37
2019-01-24T03:11:04.599Z,-2.52
2019-01-24T03:13:35.636Z,-2.49
2019-01-24T03:16:06.866Z,-2.41
2019-01-24T03:18:38.065Z,-2.16
2019-01-24T03:21:09.190Z,-2.23
2019-01-24T03:23:40.343Z,-2.27
2019-01-24T03:26:11.425Z,-2.14
2019-01-24T03:28:42.518Z,-2.17
2019-01-24T03:31:13.715Z,-2.26
2019-01-24T03:33:44.717Z,-2.32
2019-01-24T03:36:15.902Z,-2.22
2019-01-24T03:38:47.040Z,-2.27
2019-01-24T03:41:18.260Z,-1.98
2019-01-24T03:43:49.433Z,-2.12
2019-01-24T03:46:20.685Z,-2.18
2019-01-24T03:48:51.673Z,-2.08
2019-01-24T03:51:22.757Z,-1.90
2019-01-24T03:53:53.968Z,-1.72
2019-01-24T03:56:25.111Z,-1.77
2019-01-24T03:58:56.265Z,-1.78
2019-01-24T04:01:27.456Z,-2.14
2019-01-24T04:03:58.649Z,-2.03
2019-01-24T04:06:29.849Z,-2.17
2019-01-24T04:09:01.065Z,-2.25
2019-01-24T04:11:33.614Z,-2.19
2019-01-24T04:14:05.029Z,-2.20
2019-01-24T04:16:36.306Z,-2.19
2019-01-24T04:19:07.558Z,-2.26
2019-01-24T04:21:38.794Z,-2.39
2019-01-24T04:24:09.852Z,-2.46
2019-01-24T04:26:41.082Z,-2.66
2019-01-24T04:29:12.174Z,-2.47
2019-01-24T04:31:43.357Z,-2.44
2019-01-24T04:34:14.430Z,-2.50
2019-01-24T04:36:45.802Z,-2.54
2019-01-24T04:39:17.096Z,-2.41
2019-01-24T04:41:48.310Z,-2.44
2019-01-24T04:44:19.516Z,-2.44
2019-01-24T04:46:50.597Z,-2.50
2019-01-24T04:49:22.032Z,-2.50
2019-01-24T04:51:53.282Z,-2.38
2019-01-24T04:54:24.286Z,-2.33
2019-01-24T04:56:55.394Z,-2.49
2019-01-24T04:59:26.387Z,-2.45
2019-01-24T05:01:57.462Z,-2.27
2019-01-24T05:04:28.666Z,-2.24
2019-01-24T05:06:59.804Z,-2.11
2019-01-24T05:09:30.964Z,-2.12
2019-01-24T05:12:02.153Z,-2.09
2019-01-24T05:14:33.257Z,-2.20
2019-01-24T05:17:04.507Z,-2.52
2019-01-24T05:19:35.774Z,-2.27
2019-01-24T05:22:07.002Z,-2.34
2019-01-24T05:24:38.082Z,-2.11
2019-01-24T05:27:09.164Z,-2.00
2019-01-24T05:29:40.542Z,-2.10
2019-01-24T05:32:11.769Z,-2.12
2019-01-24T05:34:42.894Z,-2.07
2019-01-24T05:37:14.114Z,-1.93
2019-01-24T05:39:45.310Z,-2.16
2019-01-24T05:42:16.524Z,-2.32
2019-01-24T05:44:47.724Z,-2.39
2019-01-24T05:47:18.790Z,-2.38
2019-01-24T05:49:49.838Z,-2.21
2019-01-24T05:52:20.966Z,-2.27
2019-01-24T05:54:51.984Z,-2.26
2019-01-24T05:57:23.140Z,-2.36
2019-01-24T05:59:54.414Z,-2.40
2019-01-24T06:02:25.538Z,-2.31
2019-01-24T06:04:56.743Z,-2.36
2019-01-24T06:07:27.834Z,-2.55
2019-01-24T06:09:58.908Z,-2.43
2019-01-24T06:12:31.424Z,-2.41
2019-01-24T06:15:02.725Z,-2.22
2019-01-24T06:17:34.121Z,-2.10
2019-01-24T06:20:06.365Z,-2.01
2019-01-24T06:22:37.530Z,-2.32
2019-01-24T06:25:09.142Z,-2.34
2019-01-24T06:27:40.212Z,-2.21
2019-01-24T06:30:14.889Z,-2.34
2019-01-24T06:32:46.266Z,-2.33
2019-01-24T06:35:17.720Z,-2.29
2019-01-24T06:37:48.998Z,-2.39
2019-01-24T06:40:20.132Z,-2.47
2019-01-24T06:42:51.360Z,-2.35
2019-01-24T06:45:23.058Z,-2.35
2019-01-24T06:47:54.255Z,-2.37
2019-01-24T06:50:25.366Z,-2.45
2019-01-24T06:52:56.479Z,-2.32
2019-01-24T06:55:28.981Z,-2.32
2019-01-24T06:58:00.120Z,-2.37
2019-01-24T07:00:31.279Z,-2.33
2019-01-24T07:03:02.728Z,-2.38
2019-01-24T07:05:34.825Z,-2.29
2019-01-24T07:08:06.618Z,-2.27
2019-01-24T07:10:37.725Z,-2.18
2019-01-24T07:13:08.911Z,-2.45
2019-01-24T07:15:40.023Z,-2.32
2019-01-24T07:18:11.242Z,-2.26
2019-01-24T07:20:42.422Z,-2.19
2019-01-24T07:23:13.533Z,-2.09
2019-01-24T07:25:44.740Z,-2.18
2019-01-24T07:28:17.277Z,-2.17
2019-01-24T07:30:48.574Z,-2.00
2019-01-24T07:33:19.717Z,-2.02
2019-01-24T07:35:50.906Z,-2.17
2019-01-24T07:38:22.111Z,-2.06
2019-01-24T07:40:53.244Z,-2.00
2019-01-24T07:43:24.293Z,-1.93
2019-01-24T07:45:55.481Z,-1.98
2019-01-24T07:48:26.734Z,-1.84
2019-01-24T07:50:57.993Z,-1.84
2019-01-24T07:53:29.151Z,-1.82
2019-01-24T07:56:00.246Z,-1.73
2019-01-24T07:58:31.434Z,-1.69
2019-01-24T08:01:02.512Z,-1.78
2019-01-24T08:03:33.848Z,-1.90
2019-01-24T08:06:09.032Z,-1.97
2019-01-24T08:08:38.163Z,-2.02
2019-01-24T08:11:09.411Z,-1.93
2019-01-24T08:13:40.610Z,-1.87
2019-01-24T08:16:11.714Z,-2.17
2019-01-24T08:18:42.926Z,-2.06
2019-01-24T08:21:13.956Z,-1.85
2019-01-24T08:23:45.383Z,-1.91
2019-01-24T08:26:16.495Z,-1.95
2019-01-24T08:28:48.581Z,-1.72
2019-01-24T08:31:20.784Z,-1.52
2019-01-24T08:33:51.973Z,-1.48
2019-01-24T08:36:23.190Z,-1.54
2019-01-24T08:38:59.342Z,-1.27
2019-01-24T08:41:31.531Z,-1.03
2019-01-24T08:44:02.624Z,-0.91
2019-01-24T08:46:33.773Z,-0.71
2019-01-24T08:49:05.070Z,-0.84
2019-01-24T08:51:36.238Z,-0.65
2019-01-24T08:54:07.437Z,-0.70
2019-01-24T08:56:38.535Z,-0.58
2019-01-24T08:59:09.685Z,-0.75
2019-01-24T09:01:42.720Z,-0.65
2019-01-24T09:04:13.938Z,-0.36
2019-01-24T09:06:45.272Z,-0.40
2019-01-24T09:09:16.578Z,-0.46
2019-01-24T09:11:47.735Z,-0.30
2019-01-24T09:14:18.853Z,-0.30
2019-01-24T09:16:49.977Z,-0.46
2019-01-24T09:19:21.157Z,-0.46
2019-01-24T09:21:52.188Z,-0.61
2019-01-24T09:24:23.406Z,-0.69
2019-01-24T09:26:54.670Z,-1.00
2019-01-24T09:29:28.696Z,-0.96
2019-01-24T09:31:59.841Z,-0.90
2019-01-24T09:34:31.244Z,-0.86
2019-01-24T09:37:02.749Z,-0.92
2019-01-24T09:39:34.020Z,-0.88
2019-01-24T09:42:05.466Z,-0.83
2019-01-24T09:44:36.640Z,-0.88
2019-01-24T09:47:07.800Z,-0.62
2019-01-24T09:49:39.003Z,-0.50
2019-01-24T09:52:10.135Z,-0.42
2019-01-24T09:54:41.181Z,-0.48
2019-01-24T09:57:12.353Z,-0.31
2019-01-24T09:59:43.437Z,-0.14
2019-01-24T10:02:14.586Z,-0.29
2019-01-24T10:04:45.672Z,-0.17
2019-01-24T10:07:16.764Z,-0.06
2019-01-24T10:09:47.956Z,0.01
2019-01-24T10:12:18.962Z,0.11
2019-01-24T10:14:50.221Z,0.25
2019-01-24T10:17:21.341Z,0.16
2019-01-24T10:19:52.523Z,0.35
2019-01-24T10:22:23.852Z,0.50
2019-01-24T10:24:56.027Z,0.52
2019-01-24T10:27:27.032Z,0.65
2019-01-24T10:29:58.087Z,0.90
2019-01-24T10:32:29.390Z,0.11
2019-01-24T10:35:00.529Z,0.29
2019-01-24T10:37:32.797Z,0.75
2019-01-24T10:40:05.332Z,0.53
2019-01-24T10:42:36.493Z,0.65
2019-01-24T10:45:10.668Z,0.66
2019-01-24T10:47:41.794Z,0.44
2019-01-24T10:50:14.438Z,0.85
2019-01-24T10:52:45.687Z,0.72
2019-01-24T10:55:18.739Z,1.03
2019-01-24T10:57:50.276Z,1.07
2019-01-24T11:00:26.886Z,0.99
2019-01-24T11:02:58.043Z,0.97
2019-01-24T11:05:29.294Z,0.95
2019-01-24T11:08:00.642Z,1.24
2019-01-24T11:10:31.832Z,1.21
2019-01-24T11:13:04.294Z,1.18
2019-01-24T11:15:35.626Z,1.66
2019-01-24T11:18:08.066Z,1.23
2019-01-24T11:20:39.281Z,2.30
2019-01-24T11:23:10.343Z,3.29
2019-01-24T11:25:41.497Z,3.61
2019-01-24T11:28:12.587Z,4.10
2019-01-24T11:30:43.786Z,4.71
2019-01-24T11:33:15.948Z,4.57
2019-01-24T11:35:47.107Z,4.45
2019-01-24T11:38:18.350Z,5.17
2019-01-24T11:40:49.545Z,4.48
2019-01-24T11:43:20.767Z,5.39
2019-01-24T11:45:51.841Z,6.73
2019-01-24T11:48:23.090Z,8.70
2019-01-24T11:50:54.174Z,10.01
2019-01-24T11:53:25.420Z,12.28
2019-01-24T11:55:56.608Z,14.42
2019-01-24T11:58:27.734Z,15.21
2019-01-24T12:00:58.958Z,15.52
2019-01-24T12:03:30.113Z,16.60
2019-01-24T12:06:01.294Z,15.87
2019-01-24T12:08:32.552Z,15.42
2019-01-24T12:11:03.959Z,14.84
2019-01-24T12:13:35.130Z,16.42
2019-01-24T12:16:06.346Z,18.64
2019-01-24T12:18:37.474Z,18.94
2019-01-24T12:21:08.759Z,19.41
2019-01-24T12:23:39.889Z,20.94
2019-01-24T12:26:11.142Z,18.08
2019-01-24T12:28:42.278Z,19.77
2019-01-24T12:31:13.575Z,19.90
2019-01-24T12:33:44.756Z,21.31
2019-01-24T12:36:16.016Z,20.98
2019-01-24T12:38:47.160Z,21.46
2019-01-24T12:41:18.273Z,16.44
2019-01-24T12:43:49.359Z,19.45
2019-01-24T12:46:20.461Z,19.32
2019-01-24T12:48:51.621Z,15.82
2019-01-24T12:51:22.879Z,13.51
2019-01-24T12:53:53.986Z,14.32
2019-01-24T12:56:25.200Z,13.45
2019-01-24T12:58:56.293Z,15.00
2019-01-24T13:01:27.411Z,12.68
2019-01-24T13:03:58.487Z,10.97
2019-01-24T13:06:29.665Z,8.87
2019-01-24T13:09:00.706Z,7.13
2019-01-24T13:11:33.388Z,6.85
2019-01-24T13:14:04.650Z,6.70
2019-01-24T13:16:35.922Z,6.11
2019-01-24T13:19:06.983Z,5.80
2019-01-24T13:21:38.160Z,5.34
2019-01-24T13:24:09.299Z,4.94
2019-01-24T13:26:40.313Z,5.36
2019-01-24T13:29:11.402Z,5.50
2019-01-24T13:31:42.422Z,5.23
2019-01-24T13:34:13.616Z,4.44
2019-01-24T13:36:44.803Z,4.14
2019-01-24T13:39:15.897Z,3.31
2019-01-24T13:41:46.978Z,3.00
2019-01-24T13:44:18.086Z,3.00
2019-01-24T13:46:49.063Z,3.07
2019-01-24T13:49:20.112Z,2.69
2019-01-24T13:51:51.299Z,2.92
2019-01-24T13:54:22.449Z,2.51
2019-01-24T13:56:53.708Z,2.38
2019-01-24T13:59:24.837Z,2.25
2019-01-24T14:01:56.839Z,2.29
2019-01-24T14:04:32.533Z,2.26
2019-01-24T14:07:03.706Z,2.09
2019-01-24T14:09:34.798Z,2.10
2019-01-24T14:12:06.060Z,2.45
2019-01-24T14:14:37.244Z,2.43
2019-01-24T14:17:08.320Z,2.51
2019-01-24T14:19:39.389Z,2.38
2019-01-24T14:22:10.558Z,2.09
2019-01-24T14:24:41.643Z,2.17
2019-01-24T14:27:12.808Z,2.09
2019-01-24T14:29:43.948Z,1.64
2019-01-24T14:32:14.947Z,1.49
2019-01-24T14:34:45.996Z,1.70
2019-01-24T14:37:17.524Z,1.67
2019-01-24T14:39:48.594Z,1.73
2019-01-24T14:42:19.688Z,1.61
2019-01-24T14:44:50.870Z,1.61
2019-01-24T14:47:21.966Z,1.36
2019-01-24T14:49:53.029Z,1.27
2019-01-24T14:52:24.173Z,1.17
2019-01-24T14:54:55.162Z,1.02
2019-01-24T14:57:26.344Z,1.15
2019-01-24T14:59:57.496Z,1.26
2019-01-24T15:02:28.667Z,1.24
2019-01-24T15:04:59.737Z,1.17
2019-01-24T15:07:31.401Z,1.09
2019-01-24T15:10:02.481Z,1.09
2019-01-24T15:12:33.587Z,0.90
2019-01-24T15:15:06.359Z,1.00
2019-01-24T15:17:37.530Z,1.01
2019-01-24T15:20:09.764Z,0.97
2019-01-24T15:22:41.194Z,0.98
2019-01-24T15:25:12.359Z,1.10
2019-01-24T15:27:44.537Z,1.09
2019-01-24T15:30:18.586Z,0.99
2019-01-24T15:32:49.819Z,0.92
2019-01-24T15:35:21.107Z,0.95
2019-01-24T15:37:54.606Z,0.82
2019-01-24T15:40:29.777Z,0.20
2019-01-24T15:43:02.390Z,0.35
2019-01-24T15:45:38.189Z,0.39
2019-01-24T15:48:09.544Z,0.47
2019-01-24T15:50:40.610Z,0.30
2019-01-24T15:53:11.689Z,0.24
2019-01-24T15:55:42.757Z,0.05
2019-01-24T15:58:13.941Z,0.03
2019-01-24T16:00:45.081Z,-0.38
2019-01-24T16:03:16.448Z,-0.21
2019-01-24T16:05:47.516Z,0.13
2019-01-24T16:08:18.520Z,0.06
2019-01-24T16:10:49.782Z,0.09
2019-01-24T16:13:21.972Z,-0.06
2019-01-24T16:15:53.076Z,-0.23
2019-01-24T16:18:24.174Z,-0.23
2019-01-24T16:20:55.282Z,-0.02
2019-01-24T16:23:26.454Z,0.07
2019-01-24T16:25:57.492Z,-0.02
2019-01-24T16:28:28.671Z,0.06
2019-01-24T16:30:59.817Z,-0.16
2019-01-24T16:33:30.991Z,-0.17
2019-01-24T16:36:02.192Z,-0.18
2019-01-24T16:38:34.376Z,-0.15
2019-01-24T16:41:05.738Z,-0.30
2019-01-24T16:43:36.756Z,-0.10
2019-01-24T16:46:07.947Z,-0.74
2019-01-24T16:48:39.142Z,-0.76
2019-01-24T16:51:10.321Z,-0.56
2019-01-24T16:53:41.511Z,-1.03
2019-01-24T16:56:12.690Z,-0.79
2019-01-24T16:58:43.796Z,-0.68
2019-01-24T17:01:21.019Z,-0.49
2019-01-24T17:03:52.124Z,-0.46
2019-01-24T17:06:23.301Z,-0.59
2019-01-24T17:08:55.724Z,-0.59
2019-01-24T17:11:26.788Z,-0.70
2019-01-24T17:13:57.892Z,-0.78
2019-01-24T17:16:29.084Z,-0.75
2019-01-24T17:19:00.268Z,-0.66
2019-01-24T17:21:31.364Z,-0.58
2019-01-24T17:24:02.543Z,-0.73
2019-01-24T17:26:33.674Z,-0.94
2019-01-24T17:29:05.541Z,-0.95
2019-01-24T17:31:36.779Z,-0.97
2019-01-24T17:34:07.950Z,-0.85
2019-01-24T17:36:39.142Z,-1.06
2019-01-24T17:39:12.777Z,-1.20
2019-01-24T17:41:43.935Z,-1.23
2019-01-24T17:44:15.393Z,-1.42
2019-01-24T17:46:46.494Z,-1.43
2019-01-24T17:49:17.642Z,-1.25
2019-01-24T17:51:48.796Z,-1.34
2019-01-24T17:54:20.822Z,-1.36
2019-01-24T17:56:53.063Z,-1.35
2019-01-24T17:59:24.244Z,-1.44
2019-01-24T18:01:55.369Z,-1.30
2019-01-24T18:04:26.454Z,-1.32
2019-01-24T18:06:57.612Z,-1.60
2019-01-24T18:09:29.012Z,-1.89
2019-01-24T18:12:00.152Z,-1.66
2019-01-24T18:14:31.250Z,-1.61
2019-01-24T18:17:02.387Z,-1.55
2019-01-24T18:19:33.566Z,-1.65
2019-01-24T18:22:05.175Z,-1.59
2019-01-24T18:24:36.256Z,-1.77
2019-01-24T18:27:07.488Z,-1.57
2019-01-24T18:29:38.579Z,-1.59
2019-01-24T18:32:09.742Z,-1.60
2019-01-24T18:34:40.893Z,-1.57
2019-01-24T18:37:15.113Z,-1.58
2019-01-24T18:39:46.441Z,-1.54
2019-01-24T18:42:17.593Z,-1.46
2019-01-24T18:44:48.745Z,-1.50
2019-01-24T18:47:19.897Z,-1.57
2019-01-24T18:49:51.148Z,-1.57
2019-01-24T18:52:22.172Z,-1.56
2019-01-24T18:54:53.373Z,-1.58
2019-01-24T18:57:24.521Z,-1.57
2019-01-24T18:59:55.631Z,-1.56
2019-01-24T19:02:26.716Z,-1.76
2019-01-24T19:04:57.876Z,-1.71
2019-01-24T19:07:29.032Z,-1.74
2019-01-24T19:10:00.200Z,-1.92
2019-01-24T19:12:31.346Z,-1.89
2019-01-24T19:15:02.442Z,-1.78
2019-01-24T19:17:33.609Z,-1.60
2019-01-24T19:20:06.693Z,-1.66
2019-01-24T19:22:37.846Z,-1.59
2019-01-24T19:25:11.136Z,-1.47
2019-01-24T19:27:42.625Z,-1.68
2019-01-24T19:30:18.056Z,-1.72
2019-01-24T19:32:49.315Z,-1.71
2019-01-24T19:35:20.515Z,-1.80
2019-01-24T19:37:51.822Z,-1.97
2019-01-24T19:40:23.677Z,-2.13
2019-01-24T19:42:54.820Z,-2.06
2019-01-24T19:45:26.291Z,-1.94
2019-01-24T19:47:58.513Z,-1.77
2019-01-24T19:50:29.797Z,-1.70
2019-01-24T19:53:02.224Z,-1.72
2019-01-24T19:55:33.392Z,-2.11
2019-01-24T19:58:05.315Z,-2.25
2019-01-24T20:00:36.597Z,-2.18
2019-01-24T20:03:08.010Z,-2.44
2019-01-24T20:05:39.358Z,-2.24
2019-01-24T20:08:10.619Z,-2.52
2019-01-24T20:10:42.016Z,-2.28
2019-01-24T20:13:13.101Z,-2.27
2019-01-24T20:15:44.260Z,-2.47
2019-01-24T20:18:15.421Z,-2.42
2019-01-24T20:20:46.588Z,-2.26
2019-01-24T20:23:17.763Z,-2.23
2019-01-24T20:25:48.841Z,-2.07
2019-01-24T20:28:19.899Z,-2.15
2019-01-24T20:30:51.017Z,-1.87
2019-01-24T20:33:22.345Z,-1.96
2019-01-24T20:35:58.307Z,-2.22
2019-01-24T20:38:29.506Z,-2.20
2019-01-24T20:41:00.611Z,-2.12
2019-01-24T20:43:35.455Z,-2.12
2019-01-24T20:46:04.989Z,-2.28
2019-01-24T20:48:36.238Z,-2.10
2019-01-24T20:51:07.414Z,-2.34
2019-01-24T20:53:38.562Z,-2.42
2019-01-24T20:56:09.736Z,-2.44
2019-01-24T20:58:40.844Z,-2.13
2019-01-24T21:01:12.049Z,-2.34
2019-01-24T21:03:43.319Z,-2.42
2019-01-24T21:06:14.485Z,-2.48
2019-01-24T21:08:45.564Z,-2.84
2019-01-24T21:11:16.931Z,-2.70
2019-01-24T21:13:48.107Z,-2.89
2019-01-24T21:16:19.262Z,-2.85
2019-01-24T21:18:50.350Z,-2.97
2019-01-24T21:21:21.517Z,-3.09
2019-01-24T21:23:52.609Z,-3.15
2019-01-24T21:26:23.866Z,-3.09
2019-01-24T21:28:55.063Z,-2.93
2019-01-24T21:31:26.237Z,-3.05
2019-01-24T21:33:57.324Z,-2.83
2019-01-24T21:36:28.450Z,-2.76
2019-01-24T21:38:59.560Z,-2.88
2019-01-24T21:41:32.360Z,-3.01
2019-01-24T21:44:03.509Z,-2.93
2019-01-24T21:46:34.616Z,-2.69
2019-01-24T21:49:06.262Z,-2.70
2019-01-24T21:51:38.866Z,-2.53
2019-01-24T21:54:09.930Z,-2.55
2019-01-24T21:56:41.033Z,-2.72
2019-01-24T21:59:12.041Z,-2.96
2019-01-24T22:01:43.237Z,-2.92
2019-01-24T22:04:14.383Z,-2.84
2019-01-24T22:06:45.465Z,-2.81
2019-01-24T22:09:18.040Z,-2.83
2019-01-24T22:11:49.122Z,-2.78
2019-01-24T22:14:20.193Z,-3.02
2019-01-24T22:16:51.390Z,-3.12
2019-01-24T22:19:22.539Z,-3.17
2019-01-24T22:21:53.561Z,-3.14
2019-01-24T22:24:24.660Z,-3.54
2019-01-24T22:26:55.838Z,-3.21
2019-01-24T22:29:26.909Z,-3.46
2019-01-24T22:31:58.049Z,-3.17
2019-01-24T22:34:29.204Z,-3.35
2019-01-24T22:37:00.375Z,-3.19
2019-01-24T22:39:36.594Z,-3.01
2019-01-24T22:42:04.766Z,-2.95
2019-01-24T22:44:35.831Z,-3.34
2019-01-24T22:47:06.991Z,-3.75
2019-01-24T22:49:37.996Z,-3.49
2019-01-24T22:52:09.327Z,-3.40
2019-01-24T22:54:40.532Z,-3.63
2019-01-24T22:57:13.330Z,-3.44
2019-01-24T22:59:44.407Z,-3.49
2019-01-24T23:02:22.251Z,-3.03
2019-01-24T23:04:53.254Z,-3.14
2019-01-24T23:07:24.279Z,-3.40
2019-01-24T23:09:56.936Z,-3.20
2019-01-24T23:12:28.103Z,-3.46
2019-01-24T23:14:59.255Z,-3.65
2019-01-24T23:17:30.264Z,-3.67
2019-01-24T23:20:01.272Z,-3.65
2019-01-24T23:22:32.392Z,-3.83
2019-01-24T23:25:04.098Z,-3.49
2019-01-24T23:27:35.258Z,-3.31
2019-01-24T23:30:07.755Z,-3.22
2019-01-24T23:32:39.068Z,-3.28
2019-01-24T23:35:10.371Z,-3.45
2019-01-24T23:37:42.258Z,-3.65
2019-01-24T23:40:13.833Z,-3.49
2019-01-24T23:42:45.510Z,-3.19
2019-01-24T23:45:16.623Z,-3.17
2019-01-24T23:47:47.799Z,-3.27
2019-01-24T23:50:18.983Z,-3.15
2019-01-24T23:52:50.009Z,-3.20
2019-01-24T23:55:21.097Z,-2.94
2019-01-24T23:57:52.253Z,-3.13
